createdAt,value
2018-09-12T00:01:28.303Z,42
2018-09-12T00:11:28.750Z,45
2018-09-12T00:21:27.871Z,43
2018-09-12T00:31:28.926Z,45
2018-09-12T00:41:26.850Z,46
2018-09-12T00:51:28.932Z,45
2018-09-12T01:01:28.506Z,44
2018-09-12T01:11:27.424Z,43
2018-09-12T01:21:29.568Z,41
2018-09-12T01:31:28.585Z,41
2018-09-12T01:41:31.230Z,42
2018-09-12T01:51:27.113Z,42
2018-09-12T02:01:29.140Z,42
2018-09-12T02:11:30.191Z,41
2018-09-12T02:21:28.468Z,42
2018-09-12T02:31:27.669Z,46
2018-09-12T02:41:28.212Z,43
2018-09-12T02:51:28.301Z,44
2018-09-12T03:01:28.442Z,45
2018-09-12T03:11:29.307Z,44
2018-09-12T03:21:28.574Z,43
2018-09-12T03:31:27.683Z,46
2018-09-12T03:41:28.576Z,44
2018-09-12T03:51:28.701Z,46
2018-09-12T04:01:30.005Z,43
2018-09-12T04:11:28.748Z,44
2018-09-12T04:21:27.718Z,46
2018-09-12T04:31:28.988Z,44
2018-09-12T04:41:28.978Z,42
2018-09-12T04:51:28.534Z,44
2018-09-12T05:01:28.809Z,43
2018-09-12T05:11:29.293Z,44
2018-09-12T05:21:28.880Z,44
2018-09-12T05:31:28.849Z,43
2018-09-12T05:41:27.751Z,43
2018-09-12T05:51:28.819Z,47
2018-09-12T06:01:28.883Z,44
2018-09-12T06:11:27.147Z,47
2018-09-12T06:21:27.877Z,44
2018-09-12T06:31:29.032Z,44
2018-09-12T06:41:27.473Z,44
2018-09-12T06:51:29.863Z,42
2018-09-12T07:01:29.137Z,43
2018-09-12T07:11:29.166Z,42
2018-09-12T07:21:27.511Z,47
2018-09-12T07:31:28.891Z,45
2018-09-12T07:41:28.447Z,43
2018-09-12T07:51:28.162Z,42
2018-09-12T08:01:28.481Z,42
2018-09-12T08:11:28.094Z,43
2018-09-12T08:21:28.997Z,41
2018-09-12T08:31:27.510Z,42
2018-09-12T08:41:27.908Z,43
2018-09-12T08:51:26.945Z,44
2018-09-12T09:01:27.997Z,42
2018-09-12T09:11:27.422Z,44
2018-09-12T09:21:28.144Z,44
2018-09-12T09:31:27.762Z,42
2018-09-12T09:41:28.837Z,40
2018-09-12T09:51:28.684Z,40
2018-09-12T10:01:28.098Z,42
2018-09-12T10:11:27.768Z,40
2018-09-12T10:21:28.171Z,38
2018-09-12T10:31:30.016Z,38
2018-09-12T10:41:27.279Z,41
2018-09-12T10:51:27.536Z,40
2018-09-12T11:01:28.158Z,41
2018-09-12T11:11:27.256Z,39
2018-09-12T11:21:28.160Z,37
2018-09-12T11:31:27.414Z,40
2018-09-12T11:41:27.717Z,39
2018-09-12T11:51:27.876Z,37
2018-09-12T12:01:28.050Z,39
2018-09-12T12:11:27.218Z,40
2018-09-12T12:21:27.671Z,38
2018-09-12T12:31:28.626Z,37
2018-09-12T12:41:28.262Z,36
2018-09-12T12:51:27.388Z,39
2018-09-12T13:01:27.481Z,39
2018-09-12T13:11:28.005Z,38
2018-09-12T13:21:27.816Z,36
2018-09-12T13:31:27.497Z,36
2018-09-12T13:41:28.457Z,35
2018-09-12T13:51:28.313Z,35
2018-09-12T14:01:28.057Z,35
2018-09-12T14:11:27.477Z,36
2018-09-12T14:21:28.379Z,35
2018-09-12T14:31:28.368Z,35
2018-09-12T14:41:27.848Z,36
2018-09-12T14:51:29.403Z,34
2018-09-12T15:01:29.228Z,34
2018-09-12T15:11:27.313Z,34
2018-09-12T15:21:27.550Z,37
2018-09-12T15:31:27.708Z,36
2018-09-12T15:41:31.420Z,34
2018-09-12T15:51:28.727Z,34
2018-09-12T16:01:29.226Z,35
2018-09-12T16:11:30.165Z,35
2018-09-12T16:21:27.462Z,35
2018-09-12T16:31:28.395Z,36
2018-09-12T16:41:29.628Z,35
2018-09-12T16:51:28.062Z,37
2018-09-12T17:01:27.367Z,36
2018-09-12T17:11:27.317Z,37
2018-09-12T17:21:29.040Z,35
2018-09-12T17:31:28.492Z,35
2018-09-12T17:41:27.985Z,38
2018-09-12T17:51:26.937Z,37
2018-09-12T18:01:27.608Z,37
2018-09-12T18:11:28.321Z,38
2018-09-12T18:21:35.862Z,37
2018-09-12T18:31:27.767Z,37
2018-09-12T18:41:28.915Z,37
2018-09-12T18:51:28.779Z,36
2018-09-12T19:01:27.769Z,38
2018-09-12T19:11:28.029Z,38
2018-09-12T19:21:28.044Z,39
2018-09-12T19:31:27.466Z,40
2018-09-12T19:41:29.822Z,37
2018-09-12T19:51:29.474Z,38
2018-09-12T20:01:28.134Z,40
2018-09-12T20:11:29.873Z,38
2018-09-12T20:21:30.099Z,38
2018-09-12T20:31:27.697Z,39
2018-09-12T20:41:27.935Z,38
2018-09-12T20:51:26.903Z,41
2018-09-12T21:01:27.704Z,40
2018-09-12T21:11:28.255Z,39
2018-09-12T21:21:27.706Z,39
2018-09-12T21:31:27.755Z,42
2018-09-12T21:41:28.324Z,39
2018-09-12T21:51:27.448Z,39
2018-09-12T22:01:27.458Z,42
2018-09-12T22:11:28.450Z,41
2018-09-12T22:21:30.172Z,39
2018-09-12T22:31:27.688Z,40
2018-09-12T22:41:27.931Z,43
2018-09-12T22:51:30.324Z,39
2018-09-12T23:01:27.184Z,39
2018-09-12T23:11:27.594Z,43
2018-09-12T23:21:27.642Z,41
2018-09-12T23:31:27.680Z,43
2018-09-12T23:41:27.564Z,43
2018-09-12T23:51:28.260Z,40
